Chriesman, TX (77838)

7:42 PM CDT on August 21, 2014 (GMT -0500)
Waters-Thomas Rockdale | Change Station
CLOSE
Current Station
Personal Weather Station
Location: Rockdale, TX
Elevation: 450 ft
Nearby Weather Stations

Elev 450 ft 30.63 °N, 97.01 °W | Updated 2 minutes ago

Clear
Clear
94.5 °F
Feels Like 100 °F
N
4.0
Wind Variable Wind from South
Gusts 11.0 mph

Today
High -- | Low -- °F
--% Chance of Precip.
Yesterday
High -- | Low -- °F
Precip. -- in
6:57 AM 8:02 PM
Waning Crescent, 11% visible
Pressure 29.96 in
Visibility 10.0 miles
Clouds Clear
Heat Index 100 °F
Dew Point 69 °F
Humidity 44%
Rainfall 0.00 in
Snow Depth Not available.
UV 0 out of 12
Pollen 6.70 out of 12
Air Quality Not available.
Flu Activity Not available.
METAR KT35 220035Z AUTO 17012G16KT 10SM CLR 35/17 A2996 RMK AO2 T03530171

More Conditions Fewer Conditions

Pressure 29.96 in
Visibility 10.0 miles
Clouds Clear
Heat Index 100 °F
Dew Point 69 °F
Humidity 44%
Rainfall 0.00 in
Snow Depth Not available.
UV 0 out of 12
Pollen 6.70 out of 12
Air Quality Not available.
Flu Activity Not available.
METAR KT35 220035Z AUTO 17012G16KT 10SM CLR 35/17 A2996 RMK AO2 T03530171

More Conditions Fewer Conditions

10-Day Weather Forecast

Almanac

Astronomy

Aug. 21, 2014 Rise Set
Actual Time 6:57 AM CDT 8:02 PM CDT
Civil Twilight 6:32 AM CDT 8:27 PM CDT
Nautical Twilight 6:02 AM CDT 8:57 PM CDT
Astronomical Twilight 5:31 AM CDT 9:27 PM CDT
Moon 3:35 AM CDT (8/21) 5:26 PM CDT (8/21)
Length of Visible Light 13h 55m
Length of Day
13h 05m
Tomorrow will be 1m 40s shorter.
Waning Crescent, 11% of the Moon is Illuminated
Today
Waning Crescent
Aug 25
New
Sep 2
First Quarter
Sep 8
Full
Sep 15
Last Quarter

Today's Extremes

State Highs State Lows

Community

WunderPhotos

Upload Photos

1,746,088 photos uploaded!

Nearby

Snow Depth

Station Depth Elevation
No new snow has been reported.

Earthquake Activity

City Distance Mag. Time & Date
No recent earthquake activity has been reported nearby.
Minimum magnitude displayed is 2.5.

Coastal Water Temperatures

Place Temperature
No Stations Reporting

Nearby Weather Stations